• Join FlightAware (Why Join?)
  • Login
  • US Flag 
03:19AM EDT


 

Airport Tracker/Info


-or-


 

Live Flight TrackerFlight Track Log ✈ SKW4728 ✈ 05-May-2013 ✈ KSLC - KMFR

Flight Track Log - Related Links

Times and Time Zones

All times are in EDT time to prevent confusion due to time zone crossing. See the SKW4728 flight status page for this flight to view local times or setup timezone preferences in your user account.

Time Position Orientation Groundspeed Altitude Reporting Facility
EDT Latitude Longitude Course Direction KTS MPH feet Rate Location/Type
01:46PM 40.8133 -112.0025 270° West 174 200 5,100  Level Salt Lake Center
01:47PM 40.8425 -112.0636 302° West 214 246 6,900 1,800 Climbing Salt Lake Center
01:48PM 40.8647 -112.1292 294° West 243 280 8,400 2,220 Climbing Salt Lake Center
01:49PM 40.8588 -112.4962 261° West  Level FlightAware Approximate
01:49PM 40.8883 -112.2239 288° West 267 307 11,000  Level Salt Lake Center
01:50PM 40.8500 -112.6445 270° West  Level FlightAware Approximate
01:50PM 40.8806 -112.3275 264° West 282 325 12,900  Level Salt Lake Center
01:51PM 40.8333 -112.7913 270° West  Level FlightAware Approximate
01:51PM 40.8719 -112.4356 264° West 294 338 15,400  Level Salt Lake Center
01:52PM 40.8647 -112.5444 265° West 298 343 17,100 1,620 Climbing Salt Lake Center
01:53PM 40.8794 -112.6622 279° West 326 375 18,800 1,740 Climbing Salt Lake Center
01:54PM 40.9019 -112.7803 284° West 331 381 20,700 1,620 Climbing Salt Lake Center
01:55PM 40.9300 -112.9244 284° West 341 392 22,200 1,320 Climbing Salt Lake Center
01:56PM 40.9533 -113.0489 284° West 351 404 23,500 1,260 Climbing Salt Lake Center
01:57PM 40.9786 -113.1742 285° West 353 406 24,900 1,320 Climbing Salt Lake Center
01:58PM 41.0019 -113.3003 284° West 354 407 26,300 1,260 Climbing Salt Lake Center
01:59PM 41.0247 -113.4267 283° West 355 409 27,500 900 Climbing Salt Lake Center
02:00PM 41.0483 -113.5564 284° West 360 414 28,200 720 Climbing Salt Lake Center
02:01PM 41.0783 -113.7181 284° West 374 430 29,100 720 Climbing Salt Lake Center
02:02PM 41.1039 -113.8558 284° West 383 441 29,800 660 Climbing Salt Lake Center
02:03PM 41.1283 -113.9950 283° West 387 445 30,500 660 Climbing Salt Lake Center
02:04PM 41.1550 -114.1336 284° West 389 448 31,200 660 Climbing Salt Lake Center
02:05PM 41.1794 -114.2728 283° West 389 448 31,900 360 Climbing Salt Lake Center
02:06PM 41.2028 -114.4111 283° West 386 444 32,000  Climbing Salt Lake Center
02:07PM 41.2289 -114.5556 284° West 398 458 32,000  Level Salt Lake Center
02:08PM 41.2608 -114.7308 284° West 405 466 32,000  Level Salt Lake Center
02:09PM 41.2869 -114.8803 283° West 408 470 32,000  Level Salt Lake Center
02:10PM 41.3119 -115.0206 283° West 408 470 32,000  Level Salt Lake Center
02:11PM 41.3392 -115.1839 283° West 406 467 32,000  Level Salt Lake Center
02:12PM 41.3633 -115.3231 283° West 405 466 32,000  Level Salt Lake Center
02:13PM 41.3861 -115.4619 282° West 404 465 32,000  Level Salt Lake Center
02:14PM 41.4133 -115.6222 283° West 399 459 32,000  Level Salt Lake Center
02:15PM 41.4369 -115.7606 283° West 399 459 32,000  Level Salt Lake Center
02:16PM 41.4625 -115.9211 282° West 398 458 32,000  Level Salt Lake Center
02:18PM 41.4853 -116.0583 283° West 397 457 32,000  Level Salt Lake Center
02:19PM 41.5119 -116.2211 282° West 401 461 32,000  Level Salt Lake Center
02:20PM 41.5347 -116.3683 282° West 417 480 32,000  Level Salt Lake Center
02:21PM 41.5614 -116.5364 282° West 416 479 32,000  Level Salt Lake Center
02:22PM 41.5847 -116.6833 282° West 421 484 32,000  Level Salt Lake Center
02:23PM 41.6108 -116.8561 281° West 426 490 32,000  Level Salt Lake Center
02:24PM 41.6344 -117.0042 282° West 426 490 32,000  Level Salt Lake Center
02:25PM 41.6572 -117.1550 281° West 431 496 32,000  Level Salt Lake Center
02:26PM 41.6836 -117.3294 282° West 429 494 32,000  Level Salt Lake Center
02:27PM 41.7058 -117.4806 281° West 432 497 32,000  Level Salt Lake Center
02:28PM 41.7319 -117.6558 281° West 433 498 32,000  Level Salt Lake Center
02:29PM 41.7544 -117.8086 281° West 436 502 32,000  Level Salt Lake Center
02:30PM 41.7800 -117.9869 281° West 436 502 32,000  Level Salt Lake Center
02:31PM 41.8022 -118.1400 281° West 438 504 32,000  Level Salt Lake Center
02:32PM 41.8275 -118.3197 281° West 440 506 32,000  Level Salt Lake Center
02:33PM 41.8483 -118.4722 280° West 436 502 32,000  Level Salt Lake Center
02:34PM 41.8703 -118.6250 281° West 435 501 32,000  Level Salt Lake Center
02:35PM 41.8942 -118.8044 280° West 438 504 32,000  Level Salt Lake Center
02:36PM 41.9150 -118.9581 280° West 439 505 32,000  Level Salt Lake Center
02:37PM 41.9386 -119.1389 280° West 438 504 32,000  Level Seattle Center
02:38PM 41.9592 -119.2928 280° West 438 504 32,000  Level Seattle Center
02:39PM 41.9769 -119.4378 279° West 439 505 32,000  Level Seattle Center
02:40PM 42.0017 -119.6322 280° West 441 507 32,000  Level Seattle Center
02:41PM 42.0261 -119.7950 281° West 442 509 32,000  Level Seattle Center
02:42PM 42.0461 -119.9592 279° West 446 513 32,000  Level Seattle Center
02:43PM 42.0656 -120.1236 279° West 447 514 32,000  Level Seattle Center
02:44PM 42.0864 -120.2872 280° West 448 516 32,000  Level Seattle Center
02:45PM 42.1067 -120.4531 279° West 450 518 32,000  Level Seattle Center
02:46PM 42.1275 -120.6186 280° West 449 517 32,000  Level Seattle Center
02:47PM 42.1472 -120.7858 279° West 452 520 32,000 -780 Level Seattle Center
02:48PM 42.1672 -120.9533 279° West 455 524 30,500 -2,220 Descending Seattle Center
02:49PM 42.1878 -121.1214 279° West 456 525 27,500 -3,000 Descending Seattle Center
02:50PM 42.2039 -121.2822 278° West 443 510 24,500 -3,300 Descending Seattle Center
02:51PM 42.2258 -121.4717 279° West 432 497 20,900 -3,300 Descending Seattle Center
02:52PM 42.2428 -121.6233 279° West 423 487 17,800 -3,000 Descending Seattle Center
02:53PM 42.2586 -121.7694 278° West 411 473 14,800 -2,760 Descending Seattle Center
02:54PM 42.2739 -121.9100 278° West 397 457 12,200 -1,380 Descending Seattle Center
02:55PM 42.2881 -122.0386 279° West 371 427 12,100 -60 Descending Seattle Center
02:56PM 42.3019 -122.1592 279° West 337 388 12,100  Level Seattle Center
02:57PM 42.3136 -122.2767 278° West 320 368 12,100 -600 Level Seattle Center
02:58PM 42.3278 -122.4172 278° West 314 361 11,000 -1,020 Descending Seattle Center
02:59PM 42.3389 -122.5244 278° West 288 331 10,100 -1,200 Descending Seattle Center
03:00PM 42.3253 -122.6081 258° West 233 268 8,600 -1,140 Descending Seattle Center
03:01PM 42.3122 -122.6842 257° West 210 242 7,800 -1,080 Descending Seattle Center
03:02PM 42.3006 -122.7450 255° West 172 198 6,500 -1,560 Descending Seattle Center
03:04PM 42.2978 -122.8103 267° West 188 216 4,700 -2,100 Descending Seattle Center
03:05PM 42.3353 -122.8531 320° Northwest 158 182 2,300 -1,680 Descending Seattle Center
03:06PM 42.3719 -122.8706 341° North 150 173 1,400 -900 Descending Seattle Center